Aeroporto :
LOGIN :

Iscrizione | Disclaimer

   EN    FR    IT 

 










Sommario :    VFR   VFR Marginale   IFR   IFR Intensivo   IFR Molto Intensivo
Visibilità : 
Base nubi : 
>= 8 km
>= 3000ft
5 / 8 km
1000 / 3000 ft
1500m / 5 km
500 / 1000 ft
800 / 1500m
200 / 500 ft
< 800m
< 200 ft
Simboli :   Temporali  Nebbia  Neve Forte  Precipitazioni Forti  Vento > 20 kt
SIGMETs :   Varie  Temporali  Ghiacco  Turbolenza  Onda orograficha  Ceneri Vulcaniche







- Altitudine del aeroporto : 26 ft
- Codice IATA : GLA
- Carte del aeroporto


EGPF - Glasgow

ULTIMO METAR :
  • 181450Z AUTO 24017KT 9999 FEW031 SCT040 17/12 Q0995

METARs OBSOLETI :
  • 181420Z AUTO 24017KT 9999 SCT023/// SCT032/// //////CB 16/13 Q0995
  • 181350Z 24013G23KT 8000 -RA SCT016CB BKN024 BKN039 14/13 Q0995 RERA
  • 181320Z AUTO 24015KT 9999 -RA SCT018/// SCT031/// BKN046/// //////CB 14/13 Q0994
  • 181250Z 23017KT 5000 -RA BKN014CB 15/13 Q0994
  • 181220Z 23018G29KT 9000 -RA FEW016CB BKN022 BKN028 14/13 Q0993 RERA

TAF AMD TAF EGPF
Valido dal 18 a 12 ore il 19 a 12 ore UTC


181257Z 1812/1912 22015KT 9999 SCT018CB
TEMPO 1812/1815 24020G30KT 6000 SHRA BKN014
TEMPO 1820/1909 6000 SHRA RA BKN012
PROB30
TEMPO 1909/1912 7000 SHRA
ATIS : +44 141 887 7449
Nessun NOTAM noto per questo aeroporto.



MetMap, La meteo Aeronautica in un colpo d'occhio ! - Copyright ORBIFLY Dicembre 2007 - Disclaimer

ORBIFLY MET'MAP TEAM :

Programmazione e sviluppo : Alexandra Zaïnal
Concezione e sviluppo : Baudouin d'Aumeries
Co-Programmazione e sviluppo : Marc-Olivier Méhu
Supporto tecnico e logistico : Manuel Goepfert
Aiuto per la traduzione : Arnaldo La Scala

Contatto : metmap@orbifly.com




FONTI E CREDITI :

   NOAA